Terminal Aerodrome Forecast
Issued by NWS Omaha/Valley, NE

Home | Current Version | Previous Version | Text Only | Print | Product List | Glossary Off
Versions: 1 2 3 4 5 6 7 8 9 10 11 12 13 14

000
FTUS43 KOAX 281003 AAA
TAFOFK
TAF AMD
KOFK 281003Z 2810/2906 29015G23KT P6SM SCT090
      TEMPO 2811/2814 27010KT P6SM BKN090
     FM281700 30020G28KT P6SM SCT040
     FM282300 31013KT P6SM FEW250=

USA.gov is the U.S. government's official web portal to all federal, state and local government web resources and services.